createdAt,value
2022-08-16T00:01:24.535Z,99843.53
2022-08-16T00:03:52.756Z,99858.50
2022-08-16T00:06:20.822Z,99850.88
2022-08-16T00:08:48.728Z,99856.28
2022-08-16T00:11:19.012Z,99844.16
2022-08-16T00:13:53.744Z,99852.38
2022-08-16T00:17:06.560Z,99859.84
2022-08-16T00:19:13.398Z,99863.38
2022-08-16T00:21:42.330Z,99866.50
2022-08-16T00:24:12.345Z,99865.69
2022-08-16T00:26:45.052Z,99863.59
2022-08-16T00:29:15.629Z,99859.03
2022-08-16T00:31:58.673Z,99865.69
2022-08-16T00:34:44.672Z,99871.53
2022-08-16T00:37:20.570Z,99872.41
2022-08-16T00:39:57.997Z,99873.25
2022-08-16T00:42:31.388Z,99869.72
2022-08-16T00:45:08.738Z,99872.03
2022-08-16T00:47:48.921Z,99876.59
2022-08-16T00:50:20.319Z,99870.03
2022-08-16T00:52:50.854Z,99878.69
2022-08-16T00:55:23.318Z,99884.53
2022-08-16T00:58:00.035Z,99866.28
2022-08-16T01:00:32.321Z,99874.94
2022-08-16T01:03:04.410Z,99883.25
2022-08-16T01:05:33.440Z,99883.03
2022-08-16T01:08:34.830Z,99882.41
2022-08-16T01:10:52.902Z,99879.16
2022-08-16T01:13:26.941Z,99884.53
2022-08-16T01:16:00.993Z,99879.00
2022-08-16T01:18:39.918Z,99881.25
2022-08-16T01:21:33.379Z,99877.94
2022-08-16T01:24:51.806Z,99876.31
2022-08-16T01:27:06.451Z,99877.94
2022-08-16T01:29:57.321Z,99886.19
2022-08-16T01:32:33.708Z,99877.28
2022-08-16T01:35:07.866Z,99874.81
2022-08-16T01:37:42.314Z,99870.84
2022-08-16T01:40:15.338Z,99866.28
2022-08-16T01:42:47.939Z,99865.00
2022-08-16T01:45:19.484Z,99863.00
2022-08-16T01:47:51.111Z,99863.44
2022-08-16T01:51:08.007Z,99863.44
2022-08-16T01:53:11.149Z,99859.41
2022-08-16T01:56:04.418Z,99870.97
2022-08-16T01:58:35.784Z,99870.16
2022-08-16T02:01:07.915Z,99869.72
2022-08-16T02:03:36.752Z,99865.81
2022-08-16T02:06:08.760Z,99877.00
2022-08-16T02:08:36.872Z,99872.25
2022-08-16T02:11:09.629Z,99880.53
2022-08-16T02:13:41.923Z,99866.47
2022-08-16T02:16:18.445Z,99870.16
2022-08-16T02:18:47.704Z,99868.06
2022-08-16T02:21:16.312Z,99870.75
2022-08-16T02:23:44.532Z,99864.34
2022-08-16T02:26:19.006Z,99866.19
2022-08-16T02:28:47.928Z,99859.41
2022-08-16T02:31:20.664Z,99861.88
2022-08-16T02:34:09.392Z,99863.34
2022-08-16T02:36:48.050Z,99861.91
2022-08-16T02:39:20.219Z,99857.59
2022-08-16T02:41:54.149Z,99851.44
2022-08-16T02:44:26.904Z,99860.13
2022-08-16T02:46:56.480Z,99860.13
2022-08-16T02:49:58.603Z,99858.91
2022-08-16T02:52:24.376Z,99863.25
2022-08-16T02:54:55.525Z,99857.84
2022-08-16T02:57:27.135Z,99859.38
2022-08-16T02:59:56.155Z,99858.75
2022-08-16T03:02:31.880Z,99867.06
2022-08-16T03:05:02.313Z,99862.50
2022-08-16T03:07:36.908Z,99862.94
2022-08-16T03:10:07.706Z,99855.91
2022-08-16T03:12:56.328Z,99859.63
2022-08-16T03:15:27.665Z,99854.69
2022-08-16T03:17:56.862Z,99857.59
2022-08-16T03:20:31.897Z,99860.91
2022-08-16T03:23:02.292Z,99859.47
2022-08-16T03:25:44.197Z,99863.66
2022-08-16T03:28:17.001Z,99870.53
2022-08-16T03:30:46.205Z,99866.84
2022-08-16T03:33:17.425Z,99870.94
2022-08-16T03:36:30.078Z,99869.75
2022-08-16T03:38:56.983Z,99874.06
2022-08-16T03:41:29.323Z,99875.94
2022-08-16T03:44:44.096Z,99856.59
2022-08-16T03:47:04.184Z,99873.03
2022-08-16T03:49:36.740Z,99877.97
2022-08-16T03:52:07.826Z,99872.59
2022-08-16T03:54:53.330Z,99874.25
2022-08-16T03:57:32.061Z,99881.69
2022-08-16T04:00:35.211Z,99873.63
2022-08-16T04:03:07.521Z,99880.22
2022-08-16T04:05:40.914Z,99877.97
2022-08-16T04:08:22.902Z,99880.00
2022-08-16T04:10:57.915Z,99880.66
2022-08-16T04:14:00.469Z,99882.13
2022-08-16T04:16:26.803Z,99896.63
2022-08-16T04:19:01.366Z,99890.66
2022-08-16T04:21:32.248Z,99890.50
2022-08-16T04:24:01.684Z,99894.66
2022-08-16T04:26:32.459Z,99889.28
2022-08-16T04:29:17.115Z,99874.06
2022-08-16T04:31:56.242Z,99894.03
2022-08-16T04:34:30.227Z,99886.25
2022-08-16T04:37:01.218Z,99784.63
2022-08-16T04:39:44.865Z,99899.69
2022-08-16T04:42:18.870Z,99894.25
2022-08-16T04:44:58.275Z,99902.56
2022-08-16T04:47:33.208Z,99910.38
2022-08-16T04:50:08.013Z,99766.78
2022-08-16T04:52:36.813Z,99904.63
2022-08-16T04:55:08.394Z,99905.25
2022-08-16T04:57:39.028Z,99919.09
2022-08-16T05:00:32.868Z,99889.00
2022-08-16T05:03:18.128Z,99911.91
2022-08-16T05:05:59.355Z,99913.13
2022-08-16T05:08:32.680Z,99918.28
2022-08-16T05:11:09.938Z,99922.00
2022-08-16T05:13:42.635Z,99901.66
2022-08-16T05:16:20.090Z,99929.63
2022-08-16T05:18:56.904Z,99923.66
2022-08-16T05:21:28.372Z,99930.00
2022-08-16T05:24:09.229Z,99928.97
2022-08-16T05:26:40.830Z,99940.53
2022-08-16T05:29:15.275Z,99938.06
2022-08-16T05:31:53.008Z,99938.84
2022-08-16T05:34:23.362Z,99914.56
2022-08-16T05:36:57.282Z,99928.09
2022-08-16T05:39:33.405Z,99935.94
2022-08-16T05:42:06.499Z,99940.50
2022-08-16T05:44:38.669Z,99876.25
2022-08-16T05:47:08.469Z,99923.66
2022-08-16T05:49:39.703Z,99930.41
2022-08-16T05:52:13.482Z,99950.38
2022-08-16T05:54:48.043Z,99938.03
2022-08-16T05:57:34.718Z,99947.09
2022-08-16T06:00:09.365Z,99927.31
2022-08-16T06:02:40.935Z,99946.22
2022-08-16T06:05:27.256Z,99946.59
2022-08-16T06:07:59.034Z,99944.75
2022-08-16T06:10:33.472Z,99948.03
2022-08-16T06:13:05.095Z,99928.28
2022-08-16T06:15:34.463Z,99941.63
2022-08-16T06:18:04.275Z,99922.91
2022-08-16T06:20:35.488Z,99948.19
2022-08-16T06:23:19.433Z,99949.25
2022-08-16T06:25:57.194Z,99954.78
2022-08-16T06:28:34.748Z,99965.09
2022-08-16T06:31:04.822Z,99956.19
2022-08-16T06:33:41.835Z,99940.41
2022-08-16T06:36:14.335Z,99954.94
2022-08-16T06:38:55.978Z,99922.44
2022-08-16T06:41:57.463Z,99937.59
2022-08-16T06:44:43.930Z,99949.78
2022-08-16T06:47:54.093Z,99958.47
2022-08-16T06:50:31.187Z,99962.13
2022-08-16T06:53:09.150Z,99929.38
2022-08-16T06:55:43.261Z,99939.03
2022-08-16T06:58:22.036Z,99982.25
2022-08-16T07:00:53.086Z,99965.75
2022-08-16T07:03:26.779Z,99992.13
2022-08-16T07:05:57.981Z,99925.81
2022-08-16T07:08:33.307Z,99965.31
2022-08-16T07:11:01.663Z,99993.72
2022-08-16T07:14:03.586Z,99902.94
2022-08-16T07:16:21.651Z,99993.06
2022-08-16T07:18:59.286Z,99991.63
2022-08-16T07:21:46.712Z,99979.13
2022-08-16T07:24:30.914Z,100007.84
2022-08-16T07:27:08.534Z,100011.38
2022-08-16T07:29:41.548Z,100000.69
2022-08-16T07:32:11.283Z,99995.44
2022-08-16T07:34:48.232Z,99969.31
2022-08-16T07:37:17.881Z,100001.28
2022-08-16T07:40:01.798Z,99993.22
2022-08-16T07:42:40.984Z,99984.63
2022-08-16T07:45:10.601Z,99994.25
2022-08-16T07:47:43.978Z,100001.44
2022-08-16T07:50:56.661Z,99997.78
2022-08-16T07:53:04.573Z,99983.97
2022-08-16T07:55:45.476Z,99996.47
2022-08-16T07:58:34.810Z,99956.72
2022-08-16T08:01:10.642Z,100022.94
2022-08-16T08:03:49.067Z,99982.00
2022-08-16T08:06:25.115Z,99991.69
2022-08-16T08:08:57.604Z,99980.09
2022-08-16T08:11:30.612Z,100007.19
2022-08-16T08:14:03.693Z,100003.44
2022-08-16T08:16:38.937Z,100006.41
2022-08-16T08:19:19.693Z,99996.41
2022-08-16T08:22:00.232Z,100027.34
2022-08-16T08:24:50.311Z,100026.69
2022-08-16T08:27:24.186Z,99998.88
2022-08-16T08:30:48.913Z,99987.72
2022-08-16T08:33:02.359Z,100009.66
2022-08-16T08:35:37.415Z,100033.66
2022-08-16T08:38:08.385Z,100040.53
2022-08-16T08:40:39.015Z,100044.88
2022-08-16T08:43:18.227Z,100044.66
2022-08-16T08:45:56.562Z,100023.22
2022-08-16T08:48:33.360Z,100014.81
2022-08-16T08:51:09.034Z,100008.22
2022-08-16T08:53:44.020Z,100055.47
2022-08-16T08:56:22.523Z,100052.34
2022-08-16T08:58:58.856Z,100034.22
2022-08-16T09:01:42.720Z,100027.06
2022-08-16T09:04:14.797Z,100051.28
2022-08-16T09:06:47.509Z,100062.41
2022-08-16T09:09:17.587Z,100056.78
2022-08-16T09:11:53.796Z,100051.59
2022-08-16T09:14:38.714Z,100061.97
2022-08-16T09:17:14.142Z,100067.09
2022-08-16T09:19:57.180Z,100037.94
2022-08-16T09:22:28.937Z,100074.16
2022-08-16T09:25:09.837Z,100065.38
2022-08-16T09:27:56.845Z,100021.25
2022-08-16T09:30:34.729Z,100071.28
2022-08-16T09:33:14.267Z,100067.53
2022-08-16T09:35:42.988Z,100067.66
2022-08-16T09:38:22.293Z,100068.38
2022-08-16T09:41:01.024Z,100067.09
2022-08-16T09:44:00.251Z,100063.81
2022-08-16T09:46:45.267Z,100055.84
2022-08-16T09:49:08.494Z,100068.06
2022-08-16T09:51:37.514Z,100065.25
2022-08-16T09:54:09.675Z,100064.56
2022-08-16T09:56:39.543Z,100067.03
2022-08-16T09:59:20.956Z,100066.31
2022-08-16T10:01:52.252Z,100069.53
2022-08-16T10:04:31.295Z,100060.75
2022-08-16T10:07:11.987Z,100069.78
2022-08-16T10:09:53.744Z,100063.09
2022-08-16T10:12:43.261Z,100056.63
2022-08-16T10:15:16.001Z,100047.38
2022-08-16T10:18:01.134Z,100047.94
2022-08-16T10:20:34.555Z,100046.28
2022-08-16T10:23:07.412Z,100048.63
2022-08-16T10:27:03.666Z,100048.59
2022-08-16T10:28:29.951Z,100051.22
2022-08-16T10:31:00.286Z,100039.84
2022-08-16T10:33:34.599Z,100044.00
2022-08-16T10:36:09.753Z,100050.47
2022-08-16T10:38:42.031Z,100051.19
2022-08-16T10:41:11.483Z,100052.84
2022-08-16T10:43:44.127Z,100052.19
2022-08-16T10:46:40.042Z,100061.63
2022-08-16T10:49:05.283Z,100071.44
2022-08-16T10:52:01.789Z,100071.47
2022-08-16T10:54:29.048Z,100072.53
2022-08-16T10:56:58.044Z,100072.50
2022-08-16T10:59:38.316Z,100067.22
2022-08-16T11:02:58.007Z,100064.03
2022-08-16T11:05:06.234Z,100072.91
2022-08-16T11:07:52.359Z,100073.72
2022-08-16T11:16:27.438Z,100072.94
2022-08-16T11:19:04.555Z,100078.16
2022-08-16T11:22:23.336Z,100075.22
2022-08-16T11:24:40.257Z,100079.41
2022-08-16T11:27:23.943Z,100083.25
2022-08-16T11:29:55.122Z,100088.22
2022-08-16T11:32:31.773Z,100084.69
2022-08-16T11:35:15.033Z,100081.13
2022-08-16T11:38:47.639Z,100083.34
2022-08-16T11:40:52.598Z,100085.22
2022-08-16T11:43:30.986Z,100083.84
2022-08-16T11:46:44.563Z,100078.94
2022-08-16T11:48:55.595Z,100084.91
2022-08-16T11:51:23.473Z,100083.78
2022-08-16T11:53:52.961Z,100082.34
2022-08-16T11:56:39.577Z,100077.91
2022-08-16T11:59:12.857Z,100087.97
2022-08-16T12:01:54.704Z,100074.31
2022-08-16T12:04:24.144Z,100082.63
2022-08-16T12:06:54.579Z,100084.47
2022-08-16T12:09:27.238Z,100087.13
2022-08-16T12:11:57.626Z,100094.06
2022-08-16T12:14:26.172Z,100089.88
2022-08-16T12:16:58.945Z,100090.50
2022-08-16T12:19:34.058Z,100089.88
2022-08-16T12:22:05.750Z,100090.41
2022-08-16T12:24:50.953Z,100086.75
2022-08-16T12:27:20.694Z,100079.06
2022-08-16T12:29:52.202Z,100074.97
2022-08-16T12:32:27.152Z,100070.34
2022-08-16T12:35:08.889Z,100069.66
2022-08-16T12:37:37.733Z,100074.28
2022-08-16T12:40:24.651Z,100083.38
2022-08-16T12:42:58.899Z,100068.88
2022-08-16T12:45:29.926Z,100084.31
2022-08-16T12:48:33.269Z,100078.53
2022-08-16T12:51:04.575Z,100075.44
2022-08-16T12:53:39.951Z,100062.06
2022-08-16T12:56:11.439Z,100062.38
2022-08-16T12:58:49.420Z,100067.22
2022-08-16T13:01:20.401Z,100069.72
2022-08-16T13:03:59.239Z,100070.72
2022-08-16T13:06:39.074Z,100072.22
2022-08-16T13:09:20.220Z,100072.19
2022-08-16T13:12:00.170Z,100070.75
2022-08-16T13:14:33.513Z,100074.22
2022-08-16T13:17:04.018Z,100066.94
2022-08-16T13:20:03.308Z,100070.28
2022-08-16T13:22:24.341Z,100065.31
2022-08-16T13:24:53.124Z,100055.72
2022-08-16T13:28:02.431Z,100065.88
2022-08-16T13:30:36.439Z,100056.81
2022-08-16T13:33:00.418Z,100067.69
2022-08-16T13:35:34.534Z,100059.13
2022-08-16T13:38:03.011Z,100053.94
2022-08-16T13:40:31.413Z,100055.25
2022-08-16T13:43:01.366Z,100054.16
2022-08-16T13:45:36.201Z,100054.97
2022-08-16T13:48:06.269Z,100053.59
2022-08-16T13:50:49.611Z,100048.72
2022-08-16T13:53:24.374Z,100054.72
2022-08-16T13:55:58.597Z,100044.06
2022-08-16T13:58:37.291Z,100051.72
2022-08-16T14:01:17.489Z,100048.97
2022-08-16T14:03:46.618Z,100047.69
2022-08-16T14:06:15.611Z,100042.97
2022-08-16T14:08:58.789Z,100040.81
2022-08-16T14:11:33.792Z,100050.91
2022-08-16T14:14:05.367Z,100047.91
2022-08-16T14:16:34.972Z,100052.22
2022-08-16T14:19:03.117Z,100060.34
2022-08-16T14:21:35.519Z,100047.22
2022-08-16T14:24:12.841Z,100051.56
2022-08-16T14:26:51.198Z,100044.22
2022-08-16T14:29:22.921Z,100047.47
2022-08-16T14:31:53.607Z,100045.50
2022-08-16T14:34:25.637Z,100042.25
2022-08-16T14:36:54.020Z,100036.25
2022-08-16T14:39:23.156Z,100038.66
2022-08-16T14:41:53.710Z,100046.53
2022-08-16T14:44:26.166Z,100033.75
2022-08-16T14:46:54.955Z,100031.59
2022-08-16T14:49:23.879Z,100041.66
2022-08-16T14:51:52.095Z,100031.28
2022-08-16T14:54:20.294Z,100025.53
2022-08-16T14:56:55.303Z,100026.38
2022-08-16T14:59:24.948Z,100022.88
2022-08-16T15:01:59.598Z,100030.47
2022-08-16T15:04:39.679Z,100028.84
2022-08-16T15:07:11.202Z,100023.69
2022-08-16T15:09:44.648Z,100023.91
2022-08-16T15:12:30.732Z,100022.53
2022-08-16T15:15:04.367Z,100021.44
2022-08-16T15:17:41.650Z,100024.63
2022-08-16T15:20:12.912Z,100026.28
2022-08-16T15:22:47.990Z,100028.34
2022-08-16T15:25:18.960Z,100032.09
2022-08-16T15:27:54.596Z,100030.97
2022-08-16T15:30:58.410Z,100028.50
2022-08-16T15:33:17.468Z,100033.09
2022-08-16T15:38:57.088Z,100020.97
2022-08-16T15:41:45.246Z,100032.25
2022-08-16T15:44:22.734Z,100037.69
2022-08-16T15:46:56.645Z,100030.88
2022-08-16T15:49:37.626Z,100029.22
2022-08-16T15:52:11.027Z,100040.59
2022-08-16T15:54:43.836Z,100018.25
2022-08-16T15:57:22.612Z,100032.97
2022-08-16T15:59:52.504Z,100036.19
2022-08-16T16:02:31.092Z,100037.84
2022-08-16T16:05:02.380Z,100036.75
2022-08-16T16:07:33.781Z,100034.00
2022-08-16T16:10:07.876Z,100031.81
2022-08-16T16:12:51.563Z,100025.28
2022-08-16T16:15:25.816Z,100035.63
2022-08-16T16:17:59.197Z,100019.03
2022-08-16T16:20:35.605Z,100031.84
2022-08-16T16:23:11.006Z,100025.84
2022-08-16T16:25:40.079Z,100028.56
2022-08-16T16:28:51.284Z,100029.06
2022-08-16T16:31:01.523Z,100039.41
2022-08-16T16:33:33.823Z,100017.47
2022-08-16T16:36:05.715Z,100044.19
2022-08-16T16:38:35.138Z,99999.72
2022-08-16T16:41:09.077Z,100031.13
2022-08-16T16:43:38.525Z,100041.22
2022-08-16T16:46:41.370Z,100030.69
2022-08-16T16:48:58.098Z,100025.56
2022-08-16T16:51:28.160Z,100007.75
2022-08-16T16:53:57.074Z,100026.00
2022-08-16T16:56:36.884Z,100024.53
2022-08-16T16:59:07.496Z,100025.13
2022-08-16T17:01:57.755Z,100033.81
2022-08-16T17:04:31.850Z,100020.56
2022-08-16T17:07:01.637Z,100019.44
2022-08-16T17:09:30.137Z,100027.81
2022-08-16T17:12:23.515Z,100005.72
2022-08-16T17:15:00.568Z,100017.41
2022-08-16T17:17:29.689Z,100008.28
2022-08-16T17:20:01.907Z,100023.25
2022-08-16T17:22:32.690Z,100025.91
2022-08-16T17:25:01.514Z,99998.13
2022-08-16T17:27:37.380Z,100032.34
2022-08-16T17:30:15.718Z,100020.91
2022-08-16T17:32:47.064Z,99990.22
2022-08-16T17:35:21.374Z,100023.63
2022-08-16T17:37:52.475Z,100020.38
2022-08-16T17:40:37.286Z,100018.19
2022-08-16T17:43:18.561Z,99994.59
2022-08-16T17:45:47.952Z,100019.72
2022-08-16T17:48:15.905Z,100020.31
2022-08-16T17:50:45.478Z,100020.22
2022-08-16T17:53:20.227Z,100015.84
2022-08-16T17:55:50.458Z,100014.63
2022-08-16T17:58:23.425Z,100017.31
2022-08-16T18:00:53.942Z,100002.44
2022-08-16T18:04:08.914Z,99982.34
2022-08-16T18:06:16.804Z,100016.50
2022-08-16T18:08:48.621Z,99998.88
2022-08-16T18:11:26.127Z,100017.69
2022-08-16T18:13:56.427Z,100023.00
2022-08-16T18:16:24.422Z,100013.44
2022-08-16T18:18:52.385Z,100025.91
2022-08-16T18:21:39.464Z,100028.53
2022-08-16T18:24:08.782Z,100024.63
2022-08-16T18:26:37.265Z,100010.19
2022-08-16T18:29:05.559Z,100027.03
2022-08-16T18:31:33.429Z,99976.91
2022-08-16T18:34:02.635Z,100019.06
2022-08-16T18:36:35.029Z,100012.84
2022-08-16T18:39:02.886Z,100027.13
2022-08-16T18:41:33.549Z,100037.63
2022-08-16T18:44:26.720Z,100021.47
2022-08-16T18:46:55.680Z,100033.19
2022-08-16T18:49:28.643Z,100007.69
2022-08-16T18:51:59.759Z,100029.53
2022-08-16T18:54:29.182Z,100038.13
2022-08-16T18:56:58.218Z,100041.91
2022-08-16T18:59:33.010Z,100032.34
2022-08-16T19:02:04.903Z,100031.53
2022-08-16T19:04:48.088Z,100030.41
2022-08-16T19:07:30.859Z,100035.00
2022-08-16T19:09:59.851Z,100035.47
2022-08-16T19:12:37.714Z,100038.44
2022-08-16T19:15:15.954Z,100044.09
2022-08-16T19:17:44.677Z,100041.63
2022-08-16T19:20:14.915Z,100044.81
2022-08-16T19:23:04.566Z,100058.59
2022-08-16T19:25:48.296Z,100056.16
2022-08-16T19:28:48.903Z,100063.69
2022-08-16T19:31:12.115Z,100063.94
2022-08-16T19:33:40.573Z,99977.97
2022-08-16T19:36:31.776Z,100067.94
2022-08-16T19:39:04.381Z,100059.41
2022-08-16T19:41:37.045Z,100070.66
2022-08-16T19:44:05.839Z,100068.44
2022-08-16T19:46:38.308Z,100071.13
2022-08-16T19:49:06.652Z,100082.78
2022-08-16T19:51:37.651Z,100076.78
2022-08-16T19:54:07.165Z,100081.84
2022-08-16T19:56:34.962Z,100081.78
2022-08-16T19:59:20.935Z,100026.97
2022-08-16T20:01:51.905Z,100086.50
2022-08-16T20:04:21.620Z,100089.22
2022-08-16T20:06:49.646Z,100089.69
2022-08-16T20:09:19.403Z,100087.34
2022-08-16T20:11:48.279Z,100095.44
2022-08-16T20:14:24.128Z,100078.44
2022-08-16T20:16:54.894Z,100102.97
2022-08-16T20:19:22.768Z,100105.91
2022-08-16T20:21:50.823Z,100104.03
2022-08-16T20:24:34.152Z,100061.56
2022-08-16T20:27:03.700Z,100108.06
2022-08-16T20:29:31.641Z,100110.19
2022-08-16T20:31:59.909Z,100111.50
2022-08-16T20:34:27.802Z,100120.31
2022-08-16T20:36:55.709Z,100115.97
2022-08-16T20:39:25.208Z,100106.22
2022-08-16T20:41:53.073Z,100119.13
2022-08-16T20:44:22.867Z,100115.88
2022-08-16T20:46:52.903Z,100124.44
2022-08-16T20:49:20.788Z,100118.09
2022-08-16T20:51:52.637Z,100123.28
2022-08-16T20:54:25.252Z,100104.16
2022-08-16T20:56:53.048Z,100124.34
2022-08-16T20:59:20.866Z,100117.75
2022-08-16T21:01:50.345Z,100125.63
2022-08-16T21:04:19.749Z,100120.22
2022-08-16T21:06:54.045Z,100121.50
2022-08-16T21:09:23.349Z,100124.59
2022-08-16T21:11:53.899Z,100120.84
2022-08-16T21:14:21.829Z,100114.84
2022-08-16T21:16:49.654Z,100101.81
2022-08-16T21:19:17.677Z,100107.13
2022-08-16T21:21:45.596Z,100108.66
2022-08-16T21:24:14.198Z,100103.47
2022-08-16T21:26:55.447Z,100109.34
2022-08-16T21:29:28.455Z,100110.41
2022-08-16T21:32:12.191Z,100110.19
2022-08-16T21:34:47.800Z,100100.22
2022-08-16T21:37:15.882Z,100116.78
2022-08-16T21:39:46.956Z,100112.66
2022-08-16T21:42:17.309Z,100109.63
2022-08-16T21:44:46.805Z,100115.72
2022-08-16T21:47:14.643Z,100109.16
2022-08-16T21:49:42.499Z,100110.81
2022-08-16T21:52:22.629Z,100106.09
2022-08-16T21:54:57.049Z,100113.34
2022-08-16T21:57:25.190Z,100110.06
2022-08-16T21:59:55.773Z,100108.88
2022-08-16T22:02:27.885Z,100106.41
2022-08-16T22:05:06.969Z,100109.34
2022-08-16T22:07:34.907Z,100106.91
2022-08-16T22:11:04.643Z,100109.84
2022-08-16T22:12:51.867Z,100113.84
2022-08-16T22:15:25.677Z,100109.72
2022-08-16T22:17:54.762Z,100114.53
2022-08-16T22:20:23.506Z,100115.00
2022-08-16T22:22:51.780Z,100107.84
2022-08-16T22:25:20.028Z,100104.56
2022-08-16T22:27:47.908Z,100105.00
2022-08-16T22:30:16.124Z,100108.16
2022-08-16T22:32:45.962Z,100111.09
2022-08-16T22:35:14.569Z,100116.16
2022-08-16T22:38:50.525Z,100111.69
2022-08-16T22:40:30.555Z,100101.69
2022-08-16T22:42:58.372Z,100108.84
2022-08-16T22:45:26.212Z,100116.63
2022-08-16T22:47:55.343Z,100123.41
2022-08-16T22:50:23.180Z,100121.06
2022-08-16T22:52:56.707Z,100121.50
2022-08-16T22:55:26.174Z,100118.22
2022-08-16T22:57:54.712Z,100122.56
2022-08-16T23:00:26.201Z,100110.44
2022-08-16T23:03:01.402Z,100127.00
2022-08-16T23:05:34.353Z,100118.31
2022-08-16T23:08:02.319Z,100108.06
2022-08-16T23:10:30.432Z,100113.81
2022-08-16T23:13:00.952Z,100100.31
2022-08-16T23:15:30.461Z,100123.66
2022-08-16T23:18:01.811Z,100112.75
2022-08-16T23:20:30.533Z,100124.59
2022-08-16T23:23:19.803Z,100121.66
2022-08-16T23:25:55.070Z,100112.38
2022-08-16T23:28:26.466Z,100115.53
2022-08-16T23:30:54.960Z,100104.13
2022-08-16T23:33:26.231Z,100108.47
2022-08-16T23:35:58.246Z,100093.56
2022-08-16T23:38:37.486Z,100091.34
2022-08-16T23:41:09.179Z,100085.22
2022-08-16T23:43:43.426Z,100085.38
2022-08-16T23:46:15.116Z,100086.03
2022-08-16T23:49:58.438Z,100077.34
2022-08-16T23:51:33.405Z,100079.44
2022-08-16T23:54:01.229Z,100077.81
2022-08-16T23:56:37.039Z,100085.31
2022-08-16T23:59:08.625Z,100079.94
